Airfield :
LOGIN :

Register | Disclaimer

   EN    FR    IT 

 










Legend :    VFR   Marginal VFR   IFR   Intensive IFR   Very Intensive IFR
Visi :
Ceiling :
>= 8 km
>= 3000ft
5 to 8 km
1000 to 3000 ft
1500m to 5 km
500 to 1000 ft
800 to 1500m
200 to 500 ft
< 800m
< 200 ft
Symbols :   Thunderstorms  Fog  Heavy snow  Heavy precipitations  Wind > 20 kt
SIGMETs :     Misc.  Thunderstorms  Icing  Turbulence  Mountain Waves  Volcanic Ashes







- Airport Elevation : 978 ft
- IATA code : LNZ


LOWL - Linz

CURRENT METAR :
  • 191820Z AUTO 22007KT 9999 FEW080 SCT130 BKN150 16/14 Q1021 NOSIG

EXPIRED METARs :
  • 191750Z AUTO 21004KT 9999 FEW006 BKN100 16/15 Q1021 NOSIG
  • 191720Z AUTO 23005KT 9999 -RA //////CB FEW006 BKN090 17/16 Q1021 NOSIG
  • 191650Z AUTO 22005KT 9999 -RA //////CB FEW080 BKN100 17/16 Q1021 NOSIG
  • 191620Z AUTO 21004KT 9999 RA FEW006 OVC090 17/16 Q1021 BECMG -RA
  • 191550Z AUTO 23004KT 200V260 9999 -SHRA FEW005 SCT080 BKN090 17/16 Q1021 TEMPO SHRA

TAF TAF LOWL
Valid from the 19 at 18:00 until the 20 at 18:00 UTC


191715Z 1918/2018 27005KT 9999 FEW020 BKN080 TX20/2014Z TN14/2004Z
PROB30
TEMPO 1918/1922 SHRA FEW008 BKN025
TEMPO 2000/2006 VRB02KT 3000 BR OVC016
BECMG 2008/2010 27010KT 9999 FEW030
BECMG 2016/2018 VRB02KT
No reported NOTAMs for that airfield.
3 SIGMETs reported for the Wien FIR (LOVV) :
 
Severe icing
LOVV SIGMET 13 VALID 191820/192000 LOWW
LOVV WIEN FIR SEV ICE FCST AT 1820Z WI N4815 E01555 - N4730 E01555 - N4700 E01255 - N4755 E01315 - N4815 E01555 FL120/200 MOV E NC=
Embedded thunderstorms
LOVV SIGMET 12 VALID 191800/192000 LOWW
LOVV WIEN FIR EMBD TS OBS AT 1800Z WI N4655 E01215 - N4725 E01510 - N4630 E01445 - N4630 E01220 - N4655 E01215 TOP FL380 MOV E NC=
Severe turbulence
LOVV SIGMET 11 VALID 191730/192000 LOWW
LOVV WIEN FIR SEV TURB FCST WI N4845 E01350 - N4900 E01505 - N4845 E01600 - N4640 E01340 - N4710 E01210 - N4845 E01350 FL340/400 STNR NC=



MET'MAP, your aeronautical weather chart ! - Copyright ORBIFLY December 2007 - Disclaimer

ORBIFLY MET'MAP TEAM :

Programming & Development : Alexandra Zaïnal
Concept & Development : Baudouin d'Aumeries
Co-Development & Prog : Marc-Olivier Méhu
Technical & hardware support : Manuel Goepfert

Contact : metmap@orbifly.com




SOURCES & CREDITS :

   NOAA